Time;durP1;ratioP1;P1;durP2;ratioP2;P2;SDS_P1;SDS_P2;PMS_P1;PMS_P2;Temp;Humidity;BMP_temperature;BMP_pressure;BME280_temperature;BME280_humidity;BME280_pressure;Samples;Min_cycle;Max_cycle;Signal;HPM_P1;HPM_P2
2023/08/18 00:01:21;;;;;;;30.00;25.45;;;21.70;99.90;;;;;;5051934;28;20017;-68
2023/08/18 00:03:47;;;;;;;33.10;26.65;;;21.70;99.90;;;;;;5053315;28;20056;-69
2023/08/18 00:06:13;;;;;;;32.28;26.95;;;21.70;99.90;;;;;;5053088;28;20065;-76
2023/08/18 00:08:38;;;;;;;30.70;26.80;;;21.70;99.90;;;;;;5053146;28;20029;-68
2023/08/18 00:11:04;;;;;;;33.63;26.95;;;21.70;99.90;;;;;;5052344;28;20138;-70
2023/08/18 00:13:29;;;;;;;34.63;28.27;;;21.70;99.90;;;;;;5052875;28;20104;-69
2023/08/18 00:15:55;;;;;;;31.83;26.38;;;21.70;99.90;;;;;;5053035;28;20063;-68
2023/08/18 00:18:21;;;;;;;31.25;27.85;;;21.70;99.90;;;;;;5053171;28;20532;-69
2023/08/18 00:20:47;;;;;;;30.00;26.02;;;21.60;99.90;;;;;;5052843;28;20032;-69
2023/08/18 00:23:13;;;;;;;32.83;27.77;;;21.70;99.90;;;;;;5053024;28;20037;-69
2023/08/18 00:25:38;;;;;;;28.58;25.58;;;21.70;99.90;;;;;;5051589;28;20025;-68
2023/08/18 00:28:05;;;;;;;29.95;26.67;;;21.70;99.90;;;;;;5053046;28;20036;-69
2023/08/18 00:30:31;;;;;;;29.42;26.23;;;21.70;99.90;;;;;;5051754;28;20108;-69
2023/08/18 00:32:56;;;;;;;32.33;27.55;;;21.70;99.90;;;;;;5052990;28;20418;-68
2023/08/18 00:35:22;;;;;;;31.27;27.90;;;21.60;99.90;;;;;;5053000;28;20021;-69
2023/08/18 00:37:48;;;;;;;31.77;28.23;;;21.60;99.90;;;;;;5052785;28;20029;-68
2023/08/18 00:40:14;;;;;;;32.97;27.60;;;21.70;99.90;;;;;;5051588;28;20027;-68
2023/08/18 00:42:39;;;;;;;30.27;26.67;;;21.60;99.90;;;;;;5052484;28;20419;-68
2023/08/18 00:45:06;;;;;;;30.67;27.15;;;21.60;99.90;;;;;;5052827;28;20482;-68
2023/08/18 00:47:32;;;;;;;31.52;27.88;;;21.60;99.90;;;;;;5052792;28;20021;-68
2023/08/18 00:49:58;;;;;;;31.05;27.95;;;21.60;99.90;;;;;;5052727;28;20055;-68
2023/08/18 00:52:25;;;;;;;32.55;29.08;;;21.60;99.90;;;;;;5052530;28;20020;-68
2023/08/18 00:54:52;;;;;;;35.60;28.08;;;21.60;99.90;;;;;;5052770;28;20025;-68
2023/08/18 00:57:19;;;;;;;33.00;29.23;;;21.60;99.90;;;;;;5052405;28;20025;-68
2023/08/18 00:59:45;;;;;;;32.78;29.35;;;21.60;99.90;;;;;;5052826;28;20017;-69
2023/08/18 01:02:11;;;;;;;32.13;28.27;;;21.60;99.90;;;;;;5052398;28;20025;-68
2023/08/18 01:04:36;;;;;;;31.65;28.40;;;21.60;99.90;;;;;;5052671;28;20033;-68
2023/08/18 01:07:02;;;;;;;33.35;29.75;;;21.60;99.90;;;;;;5052536;28;20552;-69
2023/08/18 01:09:29;;;;;;;32.05;28.13;;;21.50;99.90;;;;;;5052522;28;20481;-69
2023/08/18 01:12:12;;;;;;;31.88;28.38;;;21.60;99.90;;;;;;5052246;28;20041;-68
2023/08/18 01:15:04;;;;;;;35.22;31.42;;;21.50;99.90;;;;;;5052553;28;20029;-68
2023/08/18 01:17:40;;;;;;;36.17;29.58;;;21.60;99.90;;;;;;5052429;28;20108;-68
2023/08/18 01:20:06;;;;;;;33.45;29.88;;;21.60;99.90;;;;;;5052427;28;20051;-69
2023/08/18 01:22:34;;;;;;;34.25;30.70;;;21.60;99.90;;;;;;5054488;28;20493;-72
2023/08/18 01:25:01;;;;;;;33.90;30.30;;;21.60;99.90;;;;;;5054942;28;20052;-68
2023/08/18 01:27:29;;;;;;;32.25;28.75;;;21.60;99.90;;;;;;5055931;28;20028;-69
2023/08/18 01:29:55;;;;;;;33.83;30.20;;;21.50;99.90;;;;;;5055981;28;20470;-68
2023/08/18 01:32:24;;;;;;;35.17;31.30;;;21.50;99.90;;;;;;5055969;28;20033;-71
2023/08/18 01:34:52;;;;;;;36.08;32.17;;;21.50;99.90;;;;;;5055954;28;20096;-69
2023/08/18 01:37:20;;;;;;;34.95;31.25;;;21.50;99.90;;;;;;5055871;28;20025;-70
2023/08/18 01:39:46;;;;;;;36.08;32.20;;;21.50;99.90;;;;;;5055648;28;20056;-69
2023/08/18 01:42:13;;;;;;;36.38;32.58;;;21.50;99.90;;;;;;5055695;28;20052;-68
2023/08/18 01:44:39;;;;;;;35.15;31.55;;;21.50;99.90;;;;;;5055773;28;20118;-69
2023/08/18 01:47:04;;;;;;;34.58;30.98;;;21.50;99.90;;;;;;5055834;28;20378;-70
2023/08/18 01:49:30;;;;;;;35.83;31.98;;;21.50;99.90;;;;;;5055367;28;20037;-68
2023/08/18 01:51:55;;;;;;;40.10;33.70;;;21.50;99.90;;;;;;5055712;28;20024;-69
2023/08/18 01:54:21;;;;;;;37.30;33.42;;;21.50;99.90;;;;;;5055235;28;20029;-68
2023/08/18 01:56:47;;;;;;;35.75;32.13;;;21.50;99.90;;;;;;5055682;28;20500;-68
2023/08/18 01:59:17;;;;;;;37.40;33.50;;;21.50;99.90;;;;;;5055201;28;20029;-69
2023/08/18 02:01:42;;;;;;;36.42;32.72;;;21.50;99.90;;;;;;5054192;28;20021;-68
2023/08/18 02:04:08;;;;;;;37.17;33.17;;;21.50;99.90;;;;;;5055391;28;20037;-68
2023/08/18 02:06:34;;;;;;;37.65;33.83;;;21.50;99.90;;;;;;5055494;28;20474;-68
2023/08/18 02:09:00;;;;;;;37.95;34.25;;;21.50;99.90;;;;;;5054983;28;20021;-68
2023/08/18 02:11:25;;;;;;;38.40;34.47;;;21.40;99.90;;;;;;5055262;28;20537;-69
2023/08/18 02:13:51;;;;;;;39.45;35.40;;;21.50;99.90;;;;;;5055243;28;20028;-68
2023/08/18 02:16:17;;;;;;;40.20;35.80;;;21.50;99.90;;;;;;5055171;28;20040;-68
2023/08/18 02:18:42;;;;;;;38.53;34.47;;;21.50;99.90;;;;;;5055021;28;20032;-68
2023/08/18 02:21:08;;;;;;;39.90;34.13;;;21.40;99.90;;;;;;5053864;28;20017;-68
2023/08/18 02:23:33;;;;;;;38.38;34.10;;;21.40;99.90;;;;;;5054711;28;20032;-68
2023/08/18 02:26:04;;;;;;;37.20;33.47;;;21.40;99.90;;;;;;5055187;28;20020;-68
2023/08/18 02:28:30;;;;;;;39.58;35.55;;;21.50;99.90;;;;;;5053465;28;20118;-68
2023/08/18 02:31:04;;;;;;;39.33;35.40;;;21.40;99.90;;;;;;5054829;28;20503;-68
2023/08/18 02:33:31;;;;;;;38.75;34.88;;;21.40;99.90;;;;;;5054287;28;20032;-69
2023/08/18 02:35:58;;;;;;;39.65;35.28;;;21.40;99.90;;;;;;5054942;28;20017;-69
2023/08/18 02:38:27;;;;;;;38.97;35.08;;;21.40;99.90;;;;;;5054507;28;20032;-69
2023/08/18 02:40:53;;;;;;;38.45;34.65;;;21.40;99.90;;;;;;5054358;28;20474;-68
2023/08/18 02:43:24;;;;;;;40.33;34.42;;;21.40;99.90;;;;;;5053655;28;20028;-68
2023/08/18 02:45:58;;;;;;;40.28;35.97;;;21.40;99.90;;;;;;5053741;28;20060;-70
2023/08/18 02:48:26;;;;;;;39.42;35.35;;;21.40;99.90;;;;;;5054493;28;20056;-68
2023/08/18 02:51:01;;;;;;;37.92;33.92;;;21.40;99.90;;;;;;5054573;28;20065;-68
2023/08/18 02:53:27;;;;;;;38.05;34.45;;;21.40;99.90;;;;;;5054276;28;20024;-68
2023/08/18 02:55:54;;;;;;;37.42;33.65;;;21.40;99.90;;;;;;5054391;28;20485;-69
2023/08/18 02:58:20;;;;;;;39.83;35.97;;;21.30;99.90;;;;;;5054675;28;20028;-68
2023/08/18 03:00:45;;;;;;;38.95;35.05;;;21.40;99.90;;;;;;5054349;28;20040;-70
2023/08/18 03:03:11;;;;;;;37.13;33.33;;;21.40;99.90;;;;;;5054259;28;20422;-68
2023/08/18 03:05:37;;;;;;;38.13;34.40;;;21.30;99.90;;;;;;5052792;28;20029;-74
2023/08/18 03:08:03;;;;;;;39.42;35.17;;;21.30;99.90;;;;;;5052658;28;20219;-69
2023/08/18 03:10:29;;;;;;;37.45;33.85;;;21.40;99.90;;;;;;5054109;28;20441;-68
2023/08/18 03:12:54;;;;;;;37.80;34.08;;;21.30;99.90;;;;;;5054083;28;20521;-69
2023/08/18 03:15:20;;;;;;;38.13;34.42;;;21.30;99.90;;;;;;5053982;28;20029;-68
2023/08/18 03:17:46;;;;;;;39.65;35.80;;;21.30;99.90;;;;;;5054184;28;20028;-71
2023/08/18 03:20:12;;;;;;;38.80;34.90;;;21.30;99.90;;;;;;5054420;28;20104;-68
2023/08/18 03:22:38;;;;;;;38.58;34.78;;;21.30;99.90;;;;;;5053717;28;20067;-68
2023/08/18 03:25:04;;;;;;;41.42;37.17;;;21.30;99.90;;;;;;5053687;28;20033;-68
2023/08/18 03:27:29;;;;;;;40.90;36.65;;;21.30;99.90;;;;;;5053894;28;20025;-69
2023/08/18 03:29:55;;;;;;;41.90;37.50;;;21.30;99.90;;;;;;5053867;28;20028;-68
2023/08/18 03:32:22;;;;;;;39.13;35.40;;;21.30;99.90;;;;;;5053672;28;20104;-69
2023/08/18 03:34:48;;;;;;;39.42;35.40;;;21.30;99.90;;;;;;5053746;28;20029;-69
2023/08/18 03:37:13;;;;;;;41.72;37.38;;;21.30;99.90;;;;;;5053313;28;20071;-68
2023/08/18 03:39:39;;;;;;;39.55;35.35;;;21.30;99.90;;;;;;5053675;28;20106;-68
2023/08/18 03:42:05;;;;;;;40.30;36.47;;;21.30;99.90;;;;;;5053589;28;20021;-68
2023/08/18 03:44:31;;;;;;;40.70;36.47;;;21.30;99.90;;;;;;5053347;28;20036;-68
2023/08/18 03:46:56;;;;;;;42.05;37.55;;;21.30;99.90;;;;;;5052936;28;20435;-68
2023/08/18 03:49:22;;;;;;;39.67;35.63;;;21.30;99.90;;;;;;5053284;28;20047;-68
2023/08/18 03:51:48;;;;;;;40.50;36.67;;;21.30;99.90;;;;;;5053019;28;20471;-70
2023/08/18 03:54:13;;;;;;;41.45;37.13;;;21.30;99.90;;;;;;5053477;28;20039;-68
2023/08/18 03:56:39;;;;;;;40.20;36.10;;;21.30;99.90;;;;;;5053390;28;20025;-68
2023/08/18 03:59:04;;;;;;;41.72;37.33;;;21.30;99.90;;;;;;5053368;28;20033;-68
2023/08/18 04:01:31;;;;;;;41.90;37.60;;;21.30;99.90;;;;;;5053111;28;20036;-71
2023/08/18 04:03:59;;;;;;;40.80;36.70;;;21.30;99.90;;;;;;5053315;28;20527;-69
2023/08/18 04:06:24;;;;;;;41.55;37.15;;;21.30;99.90;;;;;;5052753;28;20545;-68
2023/08/18 04:09:13;;;;;;;41.22;37.13;;;21.30;99.90;;;;;;5053398;28;20057;-68
2023/08/18 04:11:39;;;;;;;41.28;37.10;;;21.30;99.90;;;;;;5053056;28;20455;-68
2023/08/18 04:14:05;;;;;;;41.58;37.28;;;21.30;99.90;;;;;;5053174;28;20031;-69
2023/08/18 04:16:31;;;;;;;41.03;37.08;;;21.30;99.90;;;;;;5053106;28;20087;-68
2023/08/18 04:18:57;;;;;;;40.55;36.40;;;21.30;99.90;;;;;;5053162;28;20027;-68
2023/08/18 04:21:24;;;;;;;39.03;35.28;;;21.20;99.90;;;;;;5052556;28;20377;-79
2023/08/18 04:23:50;;;;;;;39.50;35.67;;;21.20;99.90;;;;;;5052988;28;20108;-69
2023/08/18 04:26:15;;;;;;;41.90;37.90;;;21.20;99.90;;;;;;5052842;28;20049;-75
2023/08/18 04:28:41;;;;;;;42.22;37.75;;;21.20;99.90;;;;;;5053106;28;20508;-69
2023/08/18 04:31:07;;;;;;;42.35;37.88;;;21.20;99.90;;;;;;5052951;28;20048;-69
2023/08/18 04:33:32;;;;;;;40.00;35.55;;;21.20;99.90;;;;;;5052883;28;20044;-74
2023/08/18 04:35:58;;;;;;;39.95;36.25;;;21.20;99.90;;;;;;5052667;28;20395;-73
2023/08/18 04:38:24;;;;;;;38.47;34.42;;;21.20;99.90;;;;;;5053008;28;20508;-71
2023/08/18 04:41:02;;;;;;;39.80;35.83;;;21.20;99.90;;;;;;5053000;28;20021;-68
2023/08/18 04:43:29;;;;;;;40.38;36.08;;;21.20;99.90;;;;;;5052832;28;20068;-68
2023/08/18 04:45:56;;;;;;;38.78;35.05;;;21.20;99.90;;;;;;5052818;28;20018;-71
2023/08/18 04:48:23;;;;;;;40.03;36.05;;;21.20;99.90;;;;;;5052378;28;20025;-70
2023/08/18 04:50:48;;;;;;;40.63;36.47;;;21.20;99.90;;;;;;5053045;28;20029;-69
2023/08/18 04:53:14;;;;;;;39.97;35.60;;;21.20;99.90;;;;;;5052721;28;20025;-69
2023/08/18 04:55:43;;;;;;;41.85;37.42;;;21.20;99.90;;;;;;5052903;28;20029;-68
2023/08/18 04:58:15;;;;;;;40.83;36.45;;;21.20;99.90;;;;;;5056110;28;20094;-68
2023/08/18 05:00:41;;;;;;;38.40;34.60;;;21.20;99.90;;;;;;5056272;28;20091;-68
2023/08/18 05:03:07;;;;;;;40.75;36.53;;;21.20;99.90;;;;;;5056373;28;20445;-68
2023/08/18 05:05:38;;;;;;;39.83;35.70;;;21.10;99.90;;;;;;5056291;28;20502;-72
2023/08/18 05:08:03;;;;;;;38.75;34.97;;;21.10;99.90;;;;;;5056545;28;20428;-73
2023/08/18 05:10:29;;;;;;;38.47;34.72;;;21.20;99.90;;;;;;5056452;28;20029;-84
2023/08/18 05:12:55;;;;;;;40.05;36.05;;;21.10;99.90;;;;;;5051519;28;20017;-68
2023/08/18 05:15:21;;;;;;;39.40;35.50;;;21.10;99.90;;;;;;5055997;28;20052;-68
2023/08/18 05:17:48;;;;;;;40.50;36.40;;;21.20;99.90;;;;;;5056219;28;20017;-68
2023/08/18 05:20:14;;;;;;;40.15;36.15;;;21.20;99.90;;;;;;5046893;28;20108;-68
2023/08/18 05:22:40;;;;;;;37.80;33.90;;;21.20;99.90;;;;;;5056288;28;20028;-68
2023/08/18 05:25:08;;;;;;;39.22;35.15;;;21.10;99.90;;;;;;5056347;28;20025;-68
2023/08/18 05:27:34;;;;;;;40.35;36.33;;;21.10;99.90;;;;;;5044920;28;20096;-68
2023/08/18 05:30:00;;;;;;;37.00;33.35;;;21.20;99.90;;;;;;5054394;28;20021;-68
2023/08/18 05:32:26;;;;;;;37.35;33.55;;;21.10;99.90;;;;;;5052608;28;20477;-68
2023/08/18 05:34:55;;;;;;;39.45;35.10;;;21.10;99.90;;;;;;5054188;28;20020;-68
2023/08/18 05:37:23;;;;;;;41.55;35.40;;;21.10;99.90;;;;;;5054389;28;20394;-68
2023/08/18 05:39:48;;;;;;;38.30;34.25;;;21.10;99.90;;;;;;5053936;28;20029;-79
2023/08/18 05:42:15;;;;;;;38.88;34.70;;;21.10;99.90;;;;;;5055510;28;20385;-77
2023/08/18 05:44:42;;;;;;;38.83;34.75;;;21.10;99.90;;;;;;5048444;28;20072;-70
2023/08/18 05:47:08;;;;;;;40.47;36.15;;;21.10;99.90;;;;;;5052661;28;20095;-83
2023/08/18 05:49:34;;;;;;;39.10;34.33;;;21.10;99.90;;;;;;5052124;28;20481;-84
2023/08/18 05:51:59;;;;;;;40.63;36.40;;;21.10;99.90;;;;;;5045102;28;20021;-87
2023/08/18 05:54:26;;;;;;;38.38;34.50;;;21.10;99.90;;;;;;5055706;28;20029;-79
2023/08/18 05:56:52;;;;;;;39.85;35.05;;;21.10;99.90;;;;;;5055162;28;20033;-69
2023/08/18 05:59:18;;;;;;;39.53;34.90;;;21.10;99.90;;;;;;5053146;28;20028;-69
2023/08/18 06:01:43;;;;;;;38.38;34.25;;;21.10;99.90;;;;;;5053036;28;20029;-70
2023/08/18 06:04:09;;;;;;;39.15;34.92;;;21.10;99.90;;;;;;5055399;28;20028;-69
2023/08/18 06:06:35;;;;;;;41.45;36.80;;;21.10;99.90;;;;;;5055642;28;20524;-70
2023/08/18 06:09:01;;;;;;;39.70;35.63;;;21.10;99.90;;;;;;5053836;28;20086;-70
2023/08/18 06:11:27;;;;;;;43.03;36.63;;;21.10;99.90;;;;;;5055132;28;20430;-70
2023/08/18 06:13:53;;;;;;;41.13;35.50;;;21.10;99.90;;;;;;5050305;28;20033;-71
2023/08/18 06:16:19;;;;;;;43.58;36.95;;;21.10;99.90;;;;;;5053720;28;20071;-73
2023/08/18 06:18:44;;;;;;;43.47;37.78;;;21.20;99.90;;;;;;5052887;28;20025;-69
2023/08/18 06:21:10;;;;;;;40.42;35.17;;;21.20;99.90;;;;;;5053762;28;20103;-70
2023/08/18 06:23:36;;;;;;;44.33;39.50;;;21.10;99.90;;;;;;5054981;28;20506;-73
2023/08/18 06:26:02;;;;;;;48.05;40.38;;;21.10;99.90;;;;;;5054756;28;20078;-70
2023/08/18 06:28:27;;;;;;;43.95;38.58;;;21.20;99.90;;;;;;5053775;28;20037;-74
2023/08/18 06:30:53;;;;;;;47.42;39.30;;;21.10;99.90;;;;;;5052519;28;20029;-69
2023/08/18 06:33:19;;;;;;;50.00;42.60;;;21.10;99.90;;;;;;5054137;28;20032;-70
2023/08/18 06:35:48;;;;;;;55.35;43.85;;;21.20;99.90;;;;;;5054525;28;20021;-70
2023/08/18 06:38:13;;;;;;;54.03;44.05;;;21.20;99.90;;;;;;5050860;28;20025;-68
2023/08/18 06:40:42;;;;;;;62.00;47.40;;;21.20;99.90;;;;;;5034636;28;20360;-77
2023/08/18 06:43:08;;;;;;;59.65;47.20;;;21.20;99.90;;;;;;5038168;28;20119;-68
2023/08/18 06:45:34;;;;;;;61.47;47.88;;;21.20;99.90;;;;;;5054279;28;20100;-71
2023/08/18 06:47:59;;;;;;;61.75;46.13;;;21.20;99.90;;;;;;5039803;28;20387;-71
2023/08/18 06:50:25;;;;;;;64.95;48.03;;;21.20;99.90;;;;;;5040587;28;20036;-72
2023/08/18 06:52:50;;;;;;;56.30;43.63;;;21.20;99.90;;;;;;5050653;28;20464;-70
2023/08/18 06:55:16;;;;;;;60.40;45.42;;;21.20;99.90;;;;;;5053740;28;20036;-71
2023/08/18 06:57:42;;;;;;;60.10;44.60;;;21.20;99.90;;;;;;5053719;28;20455;-72
2023/08/18 07:00:09;;;;;;;61.53;44.38;;;21.20;99.90;;;;;;5053241;28;20045;-71
2023/08/18 07:02:35;;;;;;;54.53;43.17;;;21.20;99.90;;;;;;5053284;28;20021;-71
2023/08/18 07:05:01;;;;;;;55.67;43.17;;;21.20;99.90;;;;;;5051890;28;20049;-71
2023/08/18 07:07:26;;;;;;;57.10;43.65;;;21.20;99.90;;;;;;5052936;28;20017;-71
2023/08/18 07:09:52;;;;;;;54.53;44.25;;;21.20;99.90;;;;;;5053619;28;20040;-75
2023/08/18 07:12:18;;;;;;;59.15;44.83;;;21.20;99.90;;;;;;5044910;28;20528;-71
2023/08/18 07:14:44;;;;;;;56.97;43.25;;;21.20;99.90;;;;;;5052468;28;20060;-70
2023/08/18 07:17:09;;;;;;;64.30;47.78;;;21.20;99.90;;;;;;5050400;28;20021;-71
2023/08/18 07:19:35;;;;;;;59.63;43.88;;;21.20;99.90;;;;;;5053291;28;20454;-85
2023/08/18 07:22:00;;;;;;;55.40;43.97;;;21.20;99.90;;;;;;5052994;28;20025;-72
2023/08/18 07:24:26;;;;;;;57.75;40.80;;;21.20;99.90;;;;;;5051519;28;20068;-72
2023/08/18 07:26:53;;;;;;;54.78;41.75;;;21.20;99.90;;;;;;5049363;28;20029;-71
2023/08/18 07:29:18;;;;;;;51.67;40.05;;;21.20;99.90;;;;;;5049014;28;20091;-71
2023/08/18 07:31:44;;;;;;;49.90;39.05;;;21.20;99.90;;;;;;5051198;28;20033;-71
2023/08/18 07:34:10;;;;;;;53.60;38.13;;;21.20;99.90;;;;;;5049742;28;20482;-76
2023/08/18 07:36:36;;;;;;;48.17;36.88;;;21.20;99.90;;;;;;5051696;28;20065;-76
2023/08/18 07:39:04;;;;;;;52.55;38.55;;;21.30;99.90;;;;;;5052787;28;20462;-70
2023/08/18 07:41:29;;;;;;;53.15;39.13;;;21.30;99.90;;;;;;5051193;28;20021;-76
2023/08/18 07:43:55;;;;;;;54.45;38.88;;;21.20;99.90;;;;;;5048357;28;20037;-70
2023/08/18 07:46:20;;;;;;;51.80;39.45;;;21.30;99.90;;;;;;5049326;28;20028;-78
2023/08/18 07:48:46;;;;;;;50.85;38.25;;;21.30;99.90;;;;;;5053552;28;20048;-74
2023/08/18 07:51:12;;;;;;;54.00;39.67;;;21.30;99.90;;;;;;5040718;28;20021;-71
2023/08/18 07:53:38;;;;;;;54.92;38.97;;;21.30;99.90;;;;;;5048507;28;20559;-72
2023/08/18 07:56:04;;;;;;;48.65;37.75;;;21.30;99.90;;;;;;5051159;28;20437;-71
2023/08/18 07:58:29;;;;;;;48.58;36.35;;;21.30;99.90;;;;;;5051067;28;20083;-81
2023/08/18 08:00:57;;;;;;;43.72;34.63;;;21.40;99.90;;;;;;5051976;28;20052;-72
2023/08/18 08:03:24;;;;;;;46.33;34.65;;;21.40;99.90;;;;;;5052219;28;20448;-87
2023/08/18 08:05:49;;;;;;;42.60;32.80;;;21.40;99.90;;;;;;5049852;28;20155;-75
2023/08/18 08:08:15;;;;;;;41.58;32.67;;;21.40;99.90;;;;;;5051119;28;20128;-71
2023/08/18 08:10:41;;;;;;;42.95;31.23;;;21.40;99.90;;;;;;5047663;28;20068;-80
2023/08/18 08:13:06;;;;;;;42.45;32.13;;;21.40;99.90;;;;;;5049185;28;20163;-71
2023/08/18 08:15:32;;;;;;;41.58;31.70;;;21.40;99.90;;;;;;5047807;28;20121;-71
2023/08/18 08:17:57;;;;;;;40.25;31.15;;;21.40;99.90;;;;;;5049021;28;20025;-71
2023/08/18 08:20:24;;;;;;;41.50;31.25;;;21.40;99.90;;;;;;5048847;28;20040;-75
2023/08/18 08:22:50;;;;;;;42.55;31.83;;;21.50;99.90;;;;;;5049846;28;20021;-78
2023/08/18 08:25:17;;;;;;;39.13;29.00;;;21.50;99.90;;;;;;5051205;28;20021;-71
2023/08/18 08:27:43;;;;;;;43.97;32.28;;;21.40;99.90;;;;;;5051527;28;20108;-70
2023/08/18 08:30:11;;;;;;;39.70;31.75;;;21.50;99.90;;;;;;5050784;28;20041;-72
2023/08/18 08:32:37;;;;;;;45.17;33.00;;;21.50;99.90;;;;;;5065355;28;20091;-72
2023/08/18 08:35:03;;;;;;;45.00;32.30;;;21.50;99.90;;;;;;5056903;28;20024;-72
2023/08/18 08:37:28;;;;;;;37.30;28.13;;;21.60;99.90;;;;;;5057719;28;20099;-73
2023/08/18 08:39:54;;;;;;;45.35;33.08;;;21.60;99.90;;;;;;5057172;28;20470;-83
2023/08/18 08:42:20;;;;;;;41.30;31.55;;;21.60;99.90;;;;;;5053940;28;20389;-79
2023/08/18 08:44:46;;;;;;;46.30;31.83;;;21.60;99.90;;;;;;5056203;28;20041;-77
2023/08/18 08:47:12;;;;;;;41.80;32.03;;;21.70;99.90;;;;;;5047720;28;20021;-71
2023/08/18 08:49:42;;;;;;;44.42;31.13;;;21.70;99.90;;;;;;5052612;28;20036;-72
2023/08/18 08:52:11;;;;;;;44.05;32.22;;;21.70;99.90;;;;;;5053364;28;20025;-71
2023/08/18 08:54:58;;;;;;;41.63;30.60;;;21.70;99.90;;;;;;5054607;28;20109;-81
2023/08/18 08:57:24;;;;;;;42.55;31.00;;;21.80;99.90;;;;;;5054703;28;20513;-71
2023/08/18 08:59:50;;;;;;;41.53;31.05;;;21.80;99.90;;;;;;5055779;28;20045;-75
2023/08/18 09:02:16;;;;;;;41.35;30.88;;;21.80;99.90;;;;;;5054692;28;20023;-76
2023/08/18 09:04:41;;;;;;;37.10;28.65;;;21.80;99.90;;;;;;5051302;28;20044;-71
2023/08/18 09:07:10;;;;;;;39.65;28.67;;;21.90;99.90;;;;;;5046398;28;20053;-82
2023/08/18 09:09:36;;;;;;;34.28;26.45;;;21.90;99.90;;;;;;5056396;28;20486;-83
2023/08/18 09:12:06;;;;;;;36.80;28.02;;;21.90;99.90;;;;;;5056613;28;20029;-70
2023/08/18 09:14:38;;;;;;;35.20;27.60;;;21.90;99.90;;;;;;5057687;28;20032;-71
2023/08/18 09:17:04;;;;;;;37.70;30.60;;;21.90;99.90;;;;;;5056452;28;20041;-71
2023/08/18 09:19:30;;;;;;;41.08;32.58;;;21.90;99.90;;;;;;5053434;28;20393;-72
2023/08/18 09:22:00;;;;;;;36.88;31.80;;;22.00;99.90;;;;;;5055647;28;20654;-71
2023/08/18 09:24:29;;;;;;;37.40;32.30;;;22.00;99.90;;;;;;5056494;28;20040;-74
2023/08/18 09:27:05;;;;;;;44.90;34.33;;;22.00;99.90;;;;;;5052666;28;20082;-72
2023/08/18 09:29:32;;;;;;;44.78;35.33;;;22.10;99.90;;;;;;5055989;28;20500;-72
2023/08/18 09:31:58;;;;;;;45.15;37.47;;;22.00;99.90;;;;;;5057379;28;20028;-72
2023/08/18 09:34:24;;;;;;;47.30;37.35;;;22.10;99.90;;;;;;5057782;28;20033;-71
2023/08/18 09:36:56;;;;;;;47.38;38.33;;;22.10;99.90;;;;;;5057240;28;20020;-71
2023/08/18 09:39:25;;;;;;;47.80;39.47;;;22.10;99.90;;;;;;5056181;28;20029;-72
2023/08/18 09:41:51;;;;;;;47.90;38.20;;;22.10;99.90;;;;;;5055689;28;20029;-71
2023/08/18 09:44:18;;;;;;;44.95;38.17;;;22.10;99.90;;;;;;5054773;28;20033;-71
2023/08/18 09:46:58;;;;;;;45.00;37.75;;;22.20;99.90;;;;;;5053931;28;20036;-72
2023/08/18 09:49:25;;;;;;;47.03;38.05;;;22.20;99.90;;;;;;5052431;28;20067;-72
2023/08/18 09:51:52;;;;;;;42.95;36.78;;;22.20;99.90;;;;;;5053263;28;20094;-72
2023/08/18 09:54:21;;;;;;;49.05;39.83;;;22.20;99.90;;;;;;5054579;28;20029;-73
2023/08/18 09:56:49;;;;;;;48.40;39.97;;;22.30;99.90;;;;;;5054798;28;20033;-82
2023/08/18 09:59:37;;;;;;;49.25;39.40;;;22.20;99.90;;;;;;5052822;28;20044;-72
2023/08/18 10:02:03;;;;;;;45.75;38.20;;;22.30;99.90;;;;;;5052756;28;20013;-77
2023/08/18 10:04:36;;;;;;;45.05;37.70;;;22.30;99.90;;;;;;5053960;28;20040;-75
2023/08/18 10:07:03;;;;;;;42.75;36.17;;;22.30;99.90;;;;;;5054269;28;20067;-78
2023/08/18 10:09:33;;;;;;;40.95;34.90;;;22.30;99.90;;;;;;5053388;28;20470;-72
2023/08/18 10:12:00;;;;;;;37.72;33.63;;;22.40;99.90;;;;;;5047858;28;20033;-75
2023/08/18 10:14:26;;;;;;;39.08;34.00;;;22.40;99.90;;;;;;5050468;28;20021;-75
2023/08/18 10:16:53;;;;;;;36.63;32.83;;;22.40;99.90;;;;;;5053295;28;20059;-71
2023/08/18 10:19:44;;;;;;;36.92;32.55;;;22.50;99.90;;;;;;5052370;28;20025;-73
2023/08/18 10:22:10;;;;;;;37.10;32.65;;;22.50;99.90;;;;;;5053251;28;20025;-71
2023/08/18 10:24:38;;;;;;;40.10;34.58;;;22.50;99.90;;;;;;5053335;28;20381;-71
2023/08/18 10:27:07;;;;;;;44.58;38.55;;;22.50;99.90;;;;;;5053107;28;20491;-71
2023/08/18 10:29:34;;;;;;;44.20;37.72;;;22.50;99.90;;;;;;5052764;28;20611;-71
2023/08/18 10:32:08;;;;;;;43.78;36.38;;;22.50;99.90;;;;;;5048495;28;20074;-71
2023/08/18 10:34:35;;;;;;;40.95;35.35;;;22.60;99.90;;;;;;5052688;28;20029;-71
2023/08/18 10:37:03;;;;;;;29.20;26.10;;;22.60;99.90;;;;;;5053355;28;20029;-74
2023/08/18 10:39:36;;;;;;;33.78;30.05;;;22.60;99.90;;;;;;5053605;28;20024;-71
2023/08/18 10:42:10;;;;;;;35.20;30.10;;;22.60;99.90;;;;;;5052995;28;20017;-71
2023/08/18 10:44:35;;;;;;;31.48;27.38;;;22.60;99.90;;;;;;5052991;28;20033;-70
2023/08/18 10:47:03;;;;;;;32.22;28.80;;;22.70;99.90;;;;;;5052391;28;20032;-69
2023/08/18 10:49:29;;;;;;;31.92;28.58;;;22.70;99.90;;;;;;5050760;28;20033;-71
2023/08/18 10:51:55;;;;;;;32.30;28.60;;;22.80;99.90;;;;;;5052124;28;20363;-70
2023/08/18 10:54:23;;;;;;;35.70;30.15;;;22.80;99.90;;;;;;5053251;28;20029;-71
2023/08/18 10:56:49;;;;;;;31.92;28.42;;;22.80;99.90;;;;;;5052961;28;20025;-69
2023/08/18 10:59:16;;;;;;;33.92;30.40;;;22.80;99.90;;;;;;5052431;28;20071;-70
2023/08/18 11:01:42;;;;;;;31.00;27.77;;;22.90;99.90;;;;;;5052088;28;20024;-74
2023/08/18 11:04:09;;;;;;;30.58;27.35;;;22.90;99.90;;;;;;5047353;28;20063;-69
2023/08/18 11:06:34;;;;;;;32.40;29.13;;;22.90;99.90;;;;;;5052173;28;20017;-72
2023/08/18 11:09:02;;;;;;;32.28;28.88;;;22.90;99.90;;;;;;5052512;28;20032;-70
2023/08/18 11:11:28;;;;;;;34.15;28.73;;;22.90;99.90;;;;;;5050533;28;20064;-76
2023/08/18 11:14:05;;;;;;;29.90;26.60;;;23.00;99.90;;;;;;5052073;28;20422;-74
2023/08/18 11:16:33;;;;;;;30.23;27.20;;;23.00;99.90;;;;;;5049670;28;20025;-70
2023/08/18 11:19:00;;;;;;;31.15;27.80;;;23.00;99.90;;;;;;5041584;28;20026;-76
2023/08/18 11:21:27;;;;;;;28.05;25.15;;;23.10;99.90;;;;;;5051185;28;20180;-70
2023/08/18 11:24:28;;;;;;;31.60;28.08;;;23.00;99.90;;;;;;5051686;28;20090;-70
2023/08/18 11:26:55;;;;;;;31.70;25.55;;;23.10;99.90;;;;;;4989970;28;20121;-71
2023/08/18 11:29:20;;;;;;;30.92;27.65;;;23.10;99.90;;;;;;5040050;28;20513;-72
2023/08/18 11:31:46;;;;;;;29.02;25.15;;;23.10;99.90;;;;;;5050306;28;20033;-69
2023/08/18 11:34:13;;;;;;;29.80;26.60;;;23.10;99.90;;;;;;5049971;28;20039;-70
2023/08/18 11:36:39;;;;;;;30.33;27.23;;;23.10;99.90;;;;;;5052649;28;20104;-69
2023/08/18 11:39:08;;;;;;;29.48;26.38;;;23.20;99.90;;;;;;5051665;28;20108;-70
2023/08/18 11:41:44;;;;;;;29.70;26.08;;;23.10;99.90;;;;;;5050055;28;20112;-70
2023/08/18 11:44:11;;;;;;;32.30;28.73;;;23.20;99.90;;;;;;5051835;28;20047;-69
2023/08/18 11:46:38;;;;;;;28.83;25.80;;;23.20;99.90;;;;;;5050978;28;20025;-69
2023/08/18 11:49:18;;;;;;;29.20;26.05;;;23.20;99.90;;;;;;5047844;28;20040;-72
2023/08/18 11:51:55;;;;;;;25.10;22.60;;;23.30;99.90;;;;;;5041209;28;20032;-69
2023/08/18 11:54:21;;;;;;;27.77;22.60;;;23.20;99.90;;;;;;5049657;28;20480;-69
2023/08/18 11:56:50;;;;;;;26.83;23.95;;;23.30;99.90;;;;;;5048920;28;20029;-69
2023/08/18 11:59:22;;;;;;;24.52;21.95;;;23.30;99.90;;;;;;5049497;28;20051;-68
2023/08/18 12:01:56;;;;;;;22.98;20.58;;;23.20;99.90;;;;;;5049266;28;20044;-68
2023/08/18 12:04:26;;;;;;;28.63;25.58;;;23.20;99.90;;;;;;5051572;28;20033;-68
2023/08/18 12:06:52;;;;;;;30.92;27.63;;;23.30;99.90;;;;;;5051830;28;20021;-70
2023/08/18 12:09:18;;;;;;;34.47;30.08;;;23.30;99.90;;;;;;5049805;28;20029;-67
2023/08/18 12:11:43;;;;;;;29.88;26.23;;;23.30;99.90;;;;;;5049472;28;20031;-69
2023/08/18 12:14:09;;;;;;;26.50;23.02;;;23.40;99.90;;;;;;5045422;28;20021;-70
2023/08/18 12:16:35;;;;;;;30.27;26.02;;;23.40;99.90;;;;;;5051450;28;20032;-70
2023/08/18 12:19:04;;;;;;;29.25;25.02;;;23.40;99.90;;;;;;5049235;28;20477;-68
2023/08/18 12:21:33;;;;;;;34.13;28.75;;;23.40;99.90;;;;;;5047117;28;20534;-80
2023/08/18 12:24:03;;;;;;;32.03;27.65;;;23.40;99.90;;;;;;5049896;28;20497;-84
2023/08/18 12:26:29;;;;;;;30.48;27.20;;;23.40;99.90;;;;;;5050404;28;20036;-91
2023/08/18 12:28:55;;;;;;;30.60;24.77;;;23.50;99.90;;;;;;5049955;28;20040;-84